sensor_id;sensor_type;location;lat;lon;timestamp;temperature;humidity
63960;DHT22;50136;51.374;0.096;2023-03-14T00:02:04;10.40;99.90
63960;DHT22;50136;51.374;0.096;2023-03-14T00:12:08;10.40;99.90
63960;DHT22;50136;51.374;0.096;2023-03-14T00:22:10;10.40;99.90
63960;DHT22;50136;51.374;0.096;2023-03-14T00:32:14;10.30;99.90
63960;DHT22;50136;51.374;0.096;2023-03-14T00:42:16;10.00;99.90
63960;DHT22;50136;51.374;0.096;2023-03-14T00:52:19;9.90;99.90
63960;DHT22;50136;51.374;0.096;2023-03-14T01:02:21;9.90;99.90
63960;DHT22;50136;51.374;0.096;2023-03-14T01:12:24;9.90;99.90
63960;DHT22;50136;51.374;0.096;2023-03-14T01:22:26;9.80;99.90
63960;DHT22;50136;51.374;0.096;2023-03-14T01:32:30;9.90;99.90
63960;DHT22;50136;51.374;0.096;2023-03-14T01:42:32;9.80;99.90
63960;DHT22;50136;51.374;0.096;2023-03-14T01:52:37;9.10;99.90
63960;DHT22;50136;51.374;0.096;2023-03-14T02:02:42;8.50;99.90
63960;DHT22;50136;51.374;0.096;2023-03-14T02:12:47;8.20;99.90
63960;DHT22;50136;51.374;0.096;2023-03-14T02:22:49;8.00;99.90
63960;DHT22;50136;51.374;0.096;2023-03-14T02:32:56;7.80;99.90
63960;DHT22;50136;51.374;0.096;2023-03-14T02:43:00;7.80;99.90
63960;DHT22;50136;51.374;0.096;2023-03-14T02:53:03;7.70;99.90
63960;DHT22;50136;51.374;0.096;2023-03-14T03:03:05;7.60;99.90
63960;DHT22;50136;51.374;0.096;2023-03-14T03:13:08;7.30;99.90
63960;DHT22;50136;51.374;0.096;2023-03-14T03:23:10;7.00;99.90
63960;DHT22;50136;51.374;0.096;2023-03-14T03:33:14;6.70;99.90
63960;DHT22;50136;51.374;0.096;2023-03-14T03:43:16;6.50;99.90
63960;DHT22;50136;51.374;0.096;2023-03-14T03:53:19;6.40;99.90
63960;DHT22;50136;51.374;0.096;2023-03-14T04:03:34;6.30;99.90
63960;DHT22;50136;51.374;0.096;2023-03-14T04:13:38;6.10;99.90
63960;DHT22;50136;51.374;0.096;2023-03-14T04:23:40;6.10;99.90
63960;DHT22;50136;51.374;0.096;2023-03-14T04:33:43;5.90;99.90
63960;DHT22;50136;51.374;0.096;2023-03-14T04:43:46;5.80;99.90
63960;DHT22;50136;51.374;0.096;2023-03-14T04:53:50;5.60;99.90
63960;DHT22;50136;51.374;0.096;2023-03-14T05:03:52;5.50;99.90
63960;DHT22;50136;51.374;0.096;2023-03-14T05:13:55;5.40;99.90
63960;DHT22;50136;51.374;0.096;2023-03-14T05:23:57;5.30;99.90
63960;DHT22;50136;51.374;0.096;2023-03-14T05:34:00;5.20;99.90
63960;DHT22;50136;51.374;0.096;2023-03-14T05:44:02;5.30;99.90
63960;DHT22;50136;51.374;0.096;2023-03-14T05:54:06;5.40;99.90
63960;DHT22;50136;51.374;0.096;2023-03-14T06:04:08;5.30;99.90
63960;DHT22;50136;51.374;0.096;2023-03-14T06:14:11;5.30;99.90
63960;DHT22;50136;51.374;0.096;2023-03-14T06:24:13;5.20;99.90
63960;DHT22;50136;51.374;0.096;2023-03-14T06:34:16;5.30;99.90
63960;DHT22;50136;51.374;0.096;2023-03-14T06:44:18;5.40;99.90
63960;DHT22;50136;51.374;0.096;2023-03-14T06:54:22;5.60;99.90
63960;DHT22;50136;51.374;0.096;2023-03-14T07:04:24;5.70;99.90
63960;DHT22;50136;51.374;0.096;2023-03-14T07:14:28;5.70;99.90
63960;DHT22;50136;51.374;0.096;2023-03-14T07:24:30;5.80;99.90
63960;DHT22;50136;51.374;0.096;2023-03-14T07:34:33;5.90;99.90
63960;DHT22;50136;51.374;0.096;2023-03-14T07:44:35;5.80;99.90
63960;DHT22;50136;51.374;0.096;2023-03-14T07:54:39;5.80;99.90
63960;DHT22;50136;51.374;0.096;2023-03-14T08:04:41;5.90;99.90
63960;DHT22;50136;51.374;0.096;2023-03-14T08:14:44;5.80;99.90
63960;DHT22;50136;51.374;0.096;2023-03-14T08:24:46;5.60;99.90
63960;DHT22;50136;51.374;0.096;2023-03-14T08:34:50;5.50;99.90
63960;DHT22;50136;51.374;0.096;2023-03-14T08:44:52;5.40;99.90
63960;DHT22;50136;51.374;0.096;2023-03-14T08:54:56;5.20;99.90
63960;DHT22;50136;51.374;0.096;2023-03-14T09:04:58;5.20;99.90
63960;DHT22;50136;51.374;0.096;2023-03-14T09:15:01;5.20;99.90
63960;DHT22;50136;51.374;0.096;2023-03-14T09:25:04;5.30;99.90
63960;DHT22;50136;51.374;0.096;2023-03-14T09:35:08;5.20;99.90
63960;DHT22;50136;51.374;0.096;2023-03-14T09:45:12;5.30;99.90
63960;DHT22;50136;51.374;0.096;2023-03-14T09:55:20;5.40;99.90
63960;DHT22;50136;51.374;0.096;2023-03-14T10:05:24;5.10;99.90
63960;DHT22;50136;51.374;0.096;2023-03-14T10:15:31;4.50;99.90
63960;DHT22;50136;51.374;0.096;2023-03-14T10:25:35;4.70;99.90
63960;DHT22;50136;51.374;0.096;2023-03-14T10:35:39;5.10;99.90
63960;DHT22;50136;51.374;0.096;2023-03-14T10:45:42;5.40;99.90
63960;DHT22;50136;51.374;0.096;2023-03-14T10:55:46;6.00;99.90
63960;DHT22;50136;51.374;0.096;2023-03-14T11:05:53;6.40;99.90
63960;DHT22;50136;51.374;0.096;2023-03-14T11:16:04;7.20;99.90
63960;DHT22;50136;51.374;0.096;2023-03-14T11:26:20;8.10;99.90
63960;DHT22;50136;51.374;0.096;2023-03-14T11:36:29;8.40;99.90
63960;DHT22;50136;51.374;0.096;2023-03-14T11:46:35;8.30;99.90
63960;DHT22;50136;51.374;0.096;2023-03-14T11:56:46;8.30;99.90
63960;DHT22;50136;51.374;0.096;2023-03-14T12:06:50;8.00;99.90
63960;DHT22;50136;51.374;0.096;2023-03-14T12:16:56;8.20;99.90
63960;DHT22;50136;51.374;0.096;2023-03-14T12:26:59;8.30;99.90
63960;DHT22;50136;51.374;0.096;2023-03-14T12:37:10;8.40;99.90
63960;DHT22;50136;51.374;0.096;2023-03-14T12:47:43;7.90;99.90
63960;DHT22;50136;51.374;0.096;2023-03-14T12:57:54;8.40;99.90
63960;DHT22;50136;51.374;0.096;2023-03-14T13:08:06;8.80;99.90
63960;DHT22;50136;51.374;0.096;2023-03-14T13:18:13;9.00;99.90
63960;DHT22;50136;51.374;0.096;2023-03-14T13:39:23;9.50;99.90
63960;DHT22;50136;51.374;0.096;2023-03-14T13:49:26;9.60;99.90
63960;DHT22;50136;51.374;0.096;2023-03-14T17:49:27;8.30;97.80
63960;DHT22;50136;51.374;0.096;2023-03-14T17:59:29;8.10;98.30
63960;DHT22;50136;51.374;0.096;2023-03-14T18:09:33;7.90;98.50
63960;DHT22;50136;51.374;0.096;2023-03-14T18:19:35;7.70;98.70
63960;DHT22;50136;51.374;0.096;2023-03-14T18:29:38;7.50;99.40
63960;DHT22;50136;51.374;0.096;2023-03-14T18:39:40;7.20;99.90
63960;DHT22;50136;51.374;0.096;2023-03-14T19:00:48;6.70;99.90
63960;DHT22;50136;51.374;0.096;2023-03-14T19:10:51;6.60;99.90
63960;DHT22;50136;51.374;0.096;2023-03-14T19:20:59;6.50;99.90
63960;DHT22;50136;51.374;0.096;2023-03-14T19:31:02;6.50;99.90
63960;DHT22;50136;51.374;0.096;2023-03-14T19:41:06;6.50;99.90
63960;DHT22;50136;51.374;0.096;2023-03-14T20:02:26;6.30;99.90
63960;DHT22;50136;51.374;0.096;2023-03-14T20:12:30;6.40;99.90
63960;DHT22;50136;51.374;0.096;2023-03-14T20:22:34;6.60;99.90
63960;DHT22;50136;51.374;0.096;2023-03-14T20:32:37;6.80;99.90
63960;DHT22;50136;51.374;0.096;2023-03-14T20:42:41;6.80;99.90
63960;DHT22;50136;51.374;0.096;2023-03-14T20:52:43;6.80;99.90
63960;DHT22;50136;51.374;0.096;2023-03-14T21:02:46;6.80;99.90
63960;DHT22;50136;51.374;0.096;2023-03-14T21:13:05;6.70;99.90
63960;DHT22;50136;51.374;0.096;2023-03-14T21:23:09;6.50;99.90
63960;DHT22;50136;51.374;0.096;2023-03-14T21:33:11;6.10;99.90
63960;DHT22;50136;51.374;0.096;2023-03-14T21:43:15;6.00;99.90
63960;DHT22;50136;51.374;0.096;2023-03-14T21:53:17;5.90;99.90
63960;DHT22;50136;51.374;0.096;2023-03-14T22:03:21;5.80;99.90
63960;DHT22;50136;51.374;0.096;2023-03-14T22:13:23;5.70;99.90
63960;DHT22;50136;51.374;0.096;2023-03-14T22:23:27;5.50;99.90
63960;DHT22;50136;51.374;0.096;2023-03-14T22:33:29;5.40;99.90
63960;DHT22;50136;51.374;0.096;2023-03-14T22:43:33;5.40;99.90
63960;DHT22;50136;51.374;0.096;2023-03-14T22:53:35;5.40;99.90
63960;DHT22;50136;51.374;0.096;2023-03-14T23:03:38;5.30;99.90
63960;DHT22;50136;51.374;0.096;2023-03-14T23:13:41;5.40;99.90
63960;DHT22;50136;51.374;0.096;2023-03-14T23:23:46;5.40;99.90
63960;DHT22;50136;51.374;0.096;2023-03-14T23:33:49;5.40;99.90
63960;DHT22;50136;51.374;0.096;2023-03-14T23:43:52;5.40;99.90
63960;DHT22;50136;51.374;0.096;2023-03-14T23:53:54;5.30;99.90
